CCM26A LFKJ-LFMN
Flight info
| Callsign | CCM26A |
|---|---|
| Flight time | 0h 31m |
| Altitude | 20000 |
| Route | LONSU |
| Aircraft | A320/M-SDE3FGHIRWY/LB1 |
Departure
| Time | 2026-05-04 19:24 |
|---|---|
| Airport | Ajaccio Napoléon Bonaparte airport (LFKJ) |
Arrival
| Time | 2026-05-04 19:55 |
|---|---|
| Airport | Nice-Côte d'Azur Airport (LFMN) |
| Time | Latitude | Longitude | Altitude | Speed | Heading |
|---|---|---|---|---|---|
| 2026-05-04 19:14 | 41.91811 | 8.79470 | 21 ft | 0 kts | 344° |
| 2026-05-04 19:15 | 41.91796 | 8.79476 | 21 ft | 4 kts | 341° |
| 2026-05-04 19:15 | 41.91771 | 8.79490 | 23 ft | 4 kts | 336° |
| 2026-05-04 19:15 | 41.91746 | 8.79502 | 24 ft | 4 kts | 355° |
| 2026-05-04 19:15 | 41.91733 | 8.79501 | 22 ft | 0 kts | 25° |
| 2026-05-04 19:18 | 41.91738 | 8.79505 | 22 ft | 3 kts | 25° |
| 2026-05-04 19:19 | 41.91768 | 8.79524 | 21 ft | 8 kts | 25° |
| 2026-05-04 19:19 | 41.91839 | 8.79568 | 23 ft | 13 kts | 25° |
| 2026-05-04 19:19 | 41.91916 | 8.79615 | 21 ft | 11 kts | 24° |
| 2026-05-04 19:19 | 41.91985 | 8.79659 | 21 ft | 12 kts | 25° |
| 2026-05-04 19:20 | 41.92079 | 8.79717 | 24 ft | 18 kts | 25° |
| 2026-05-04 19:20 | 41.92197 | 8.79792 | 24 ft | 20 kts | 25° |
| 2026-05-04 19:20 | 41.92327 | 8.79872 | 23 ft | 22 kts | 25° |
| 2026-05-04 19:20 | 41.92470 | 8.79961 | 21 ft | 24 kts | 25° |
| 2026-05-04 19:21 | 41.92607 | 8.80046 | 21 ft | 21 kts | 24° |
| 2026-05-04 19:21 | 41.92741 | 8.80130 | 21 ft | 22 kts | 28° |
| 2026-05-04 19:21 | 41.92853 | 8.80257 | 21 ft | 20 kts | 46° |
| 2026-05-04 19:21 | 41.92945 | 8.80384 | 21 ft | 12 kts | 51° |
| 2026-05-04 19:22 | 41.92960 | 8.80478 | 23 ft | 9 kts | 103° |
| 2026-05-04 19:22 | 41.92945 | 8.80531 | 25 ft | 4 kts | 114° |
| 2026-05-04 19:22 | 41.92934 | 8.80553 | 30 ft | 4 kts | 131° |
| 2026-05-04 19:22 | 41.92892 | 8.80556 | 26 ft | 9 kts | 199° |
| 2026-05-04 19:23 | 41.92880 | 8.80548 | 26 ft | 1 kts | 205° |
| 2026-05-04 19:23 | 41.92614 | 8.80383 | 25 ft | 83 kts | 205° |
| 2026-05-04 19:23 | 41.91889 | 8.79931 | 26 ft | 143 kts | 205° |
| 2026-05-04 19:23 | 41.90931 | 8.79335 | 525 ft | 150 kts | 203° |
| 2026-05-04 19:24 | 41.90342 | 8.78809 | 917 ft | 160 kts | 230° |
| 2026-05-04 19:24 | 41.89604 | 8.77116 | 1852 ft | 159 kts | 241° |
| 2026-05-04 19:24 | 41.89034 | 8.75753 | 2279 ft | 177 kts | 240° |
| 2026-05-04 19:24 | 41.88617 | 8.74766 | 2563 ft | 189 kts | 238° |
| 2026-05-04 19:25 | 41.87919 | 8.73150 | 2941 ft | 211 kts | 238° |
| 2026-05-04 19:25 | 41.87119 | 8.71332 | 3302 ft | 240 kts | 236° |
| 2026-05-04 19:25 | 41.86227 | 8.69326 | 3924 ft | 256 kts | 237° |
| 2026-05-04 19:25 | 41.85332 | 8.67292 | 5054 ft | 253 kts | 237° |
| 2026-05-04 19:26 | 41.84437 | 8.65217 | 5991 ft | 258 kts | 241° |
| 2026-05-04 19:26 | 41.83973 | 8.62895 | 6862 ft | 268 kts | 265° |
| 2026-05-04 19:26 | 41.84304 | 8.60401 | 7723 ft | 279 kts | 289° |
| 2026-05-04 19:26 | 41.85394 | 8.58199 | 8607 ft | 290 kts | 313° |
| 2026-05-04 19:27 | 41.87125 | 8.56762 | 9567 ft | 297 kts | 335° |
| 2026-05-04 19:27 | 41.89048 | 8.55707 | 10367 ft | 304 kts | 334° |
| 2026-05-04 19:27 | 41.91053 | 8.54497 | 10709 ft | 326 kts | 332° |
| 2026-05-04 19:27 | 41.93150 | 8.53191 | 11066 ft | 345 kts | 332° |
| 2026-05-04 19:28 | 41.95393 | 8.51826 | 11515 ft | 360 kts | 333° |
| 2026-05-04 19:28 | 41.97705 | 8.50454 | 12216 ft | 366 kts | 333° |
| 2026-05-04 19:28 | 42.00052 | 8.49077 | 12965 ft | 370 kts | 333° |
| 2026-05-04 19:28 | 42.02422 | 8.47688 | 13707 ft | 374 kts | 333° |
| 2026-05-04 19:29 | 42.04824 | 8.46273 | 14376 ft | 378 kts | 333° |
| 2026-05-04 19:29 | 42.07250 | 8.44837 | 15028 ft | 381 kts | 333° |
| 2026-05-04 19:29 | 42.09660 | 8.43406 | 15671 ft | 385 kts | 333° |
| 2026-05-04 19:29 | 42.12128 | 8.41936 | 16306 ft | 390 kts | 333° |
| 2026-05-04 19:30 | 42.14633 | 8.40439 | 16912 ft | 394 kts | 333° |
| 2026-05-04 19:30 | 42.17126 | 8.38950 | 17546 ft | 398 kts | 333° |
| 2026-05-04 19:30 | 42.19674 | 8.37425 | 18177 ft | 402 kts | 333° |
| 2026-05-04 19:30 | 42.22248 | 8.35885 | 18745 ft | 406 kts | 333° |
| 2026-05-04 19:31 | 42.24838 | 8.34336 | 19312 ft | 409 kts | 333° |
| 2026-05-04 19:31 | 42.27455 | 8.32770 | 19822 ft | 413 kts | 333° |
| 2026-05-04 19:31 | 42.30089 | 8.31193 | 19987 ft | 413 kts | 333° |
| 2026-05-04 19:31 | 42.32765 | 8.29583 | 20038 ft | 429 kts | 333° |
| 2026-05-04 19:32 | 42.35499 | 8.27933 | 20043 ft | 439 kts | 333° |
| 2026-05-04 19:32 | 42.38302 | 8.26242 | 20031 ft | 441 kts | 333° |
| 2026-05-04 19:32 | 42.41115 | 8.24554 | 20039 ft | 442 kts | 333° |
| 2026-05-04 19:32 | 42.43931 | 8.22867 | 20045 ft | 442 kts | 333° |
| 2026-05-04 19:33 | 42.46714 | 8.21195 | 20038 ft | 442 kts | 333° |
| 2026-05-04 19:33 | 42.49533 | 8.19496 | 20036 ft | 442 kts | 333° |
| 2026-05-04 19:33 | 42.52340 | 8.17801 | 20042 ft | 442 kts | 333° |
| 2026-05-04 19:33 | 42.55152 | 8.16098 | 20045 ft | 442 kts | 333° |
| 2026-05-04 19:34 | 42.57961 | 8.14394 | 20036 ft | 442 kts | 333° |
| 2026-05-04 19:34 | 42.60771 | 8.12688 | 20041 ft | 442 kts | 333° |
| 2026-05-04 19:34 | 42.63551 | 8.11005 | 20037 ft | 442 kts | 333° |
| 2026-05-04 19:34 | 42.66342 | 8.09313 | 19795 ft | 433 kts | 333° |
| 2026-05-04 19:35 | 42.69112 | 8.07628 | 18854 ft | 438 kts | 333° |
| 2026-05-04 19:35 | 42.71880 | 8.05945 | 18273 ft | 432 kts | 333° |
| 2026-05-04 19:35 | 42.74596 | 8.04344 | 17652 ft | 428 kts | 337° |
| 2026-05-04 19:35 | 42.77468 | 8.03279 | 17089 ft | 425 kts | 348° |
| 2026-05-04 19:36 | 42.80406 | 8.02948 | 16692 ft | 420 kts | 359° |
| 2026-05-04 19:36 | 42.83317 | 8.03265 | 16354 ft | 417 kts | 5° |
| 2026-05-04 19:36 | 42.86163 | 8.03696 | 16000 ft | 414 kts | 5° |
| 2026-05-04 19:36 | 42.89033 | 8.04120 | 15649 ft | 412 kts | 4° |
| 2026-05-04 19:37 | 42.91883 | 8.04532 | 15302 ft | 409 kts | 4° |
| 2026-05-04 19:37 | 42.94718 | 8.04945 | 14947 ft | 407 kts | 4° |
| 2026-05-04 19:37 | 42.97496 | 8.05354 | 14600 ft | 405 kts | 4° |
| 2026-05-04 19:37 | 43.00290 | 8.05770 | 14255 ft | 402 kts | 5° |
| 2026-05-04 19:38 | 43.03068 | 8.06189 | 13912 ft | 400 kts | 5° |
| 2026-05-04 19:38 | 43.05831 | 8.06605 | 13543 ft | 398 kts | 5° |
| 2026-05-04 19:38 | 43.08551 | 8.07017 | 13209 ft | 396 kts | 5° |
| 2026-05-04 19:38 | 43.11285 | 8.07431 | 12872 ft | 394 kts | 5° |
| 2026-05-04 19:39 | 43.14006 | 8.07841 | 12535 ft | 392 kts | 5° |
| 2026-05-04 19:39 | 43.16712 | 8.08246 | 12197 ft | 389 kts | 5° |
| 2026-05-04 19:39 | 43.19408 | 8.08648 | 11863 ft | 387 kts | 5° |
| 2026-05-04 19:39 | 43.22053 | 8.09046 | 11537 ft | 385 kts | 5° |
| 2026-05-04 19:40 | 43.24712 | 8.09377 | 11208 ft | 383 kts | 359° |
| 2026-05-04 19:40 | 43.27319 | 8.08927 | 10941 ft | 370 kts | 343° |
| 2026-05-04 19:40 | 43.29632 | 8.07624 | 10824 ft | 351 kts | 328° |
| 2026-05-04 19:40 | 43.31538 | 8.05674 | 10689 ft | 333 kts | 313° |
| 2026-05-04 19:41 | 43.32947 | 8.03313 | 10575 ft | 316 kts | 300° |
| 2026-05-04 19:41 | 43.34019 | 8.00747 | 10454 ft | 304 kts | 297° |
| 2026-05-04 19:41 | 43.35048 | 7.98248 | 10227 ft | 297 kts | 297° |
| 2026-05-04 19:41 | 43.36067 | 7.95780 | 10124 ft | 297 kts | 295° |
| 2026-05-04 19:42 | 43.36971 | 7.93102 | 9936 ft | 308 kts | 289° |
| 2026-05-04 19:42 | 43.37743 | 7.90400 | 9813 ft | 298 kts | 287° |
| 2026-05-04 19:42 | 43.38459 | 7.87748 | 9674 ft | 294 kts | 287° |
| 2026-05-04 19:42 | 43.39150 | 7.85132 | 9550 ft | 294 kts | 286° |
| 2026-05-04 19:43 | 43.39848 | 7.82480 | 9424 ft | 295 kts | 286° |
| 2026-05-04 19:43 | 43.40550 | 7.79829 | 9288 ft | 295 kts | 286° |
| 2026-05-04 19:43 | 43.41256 | 7.77182 | 9161 ft | 294 kts | 287° |
| 2026-05-04 19:43 | 43.41967 | 7.74545 | 9030 ft | 293 kts | 288° |
| 2026-05-04 19:44 | 43.42668 | 7.71958 | 8902 ft | 292 kts | 288° |
| 2026-05-04 19:44 | 43.43383 | 7.69331 | 8785 ft | 292 kts | 288° |
| 2026-05-04 19:44 | 43.44093 | 7.66713 | 8651 ft | 292 kts | 287° |
| 2026-05-04 19:44 | 43.44800 | 7.64089 | 8524 ft | 292 kts | 287° |
| 2026-05-04 19:45 | 43.45505 | 7.61474 | 8393 ft | 291 kts | 286° |
| 2026-05-04 19:45 | 43.46214 | 7.58842 | 8278 ft | 292 kts | 287° |
| 2026-05-04 19:45 | 43.46910 | 7.56201 | 8153 ft | 293 kts | 284° |
| 2026-05-04 19:45 | 43.47266 | 7.53463 | 8028 ft | 288 kts | 269° |
| 2026-05-04 19:46 | 43.47139 | 7.50767 | 7906 ft | 285 kts | 255° |
| 2026-05-04 19:46 | 43.46703 | 7.48107 | 7780 ft | 285 kts | 253° |
| 2026-05-04 19:46 | 43.46258 | 7.45453 | 7656 ft | 284 kts | 253° |
| 2026-05-04 19:46 | 43.45811 | 7.42788 | 7260 ft | 287 kts | 254° |
| 2026-05-04 19:47 | 43.45362 | 7.40099 | 6842 ft | 286 kts | 255° |
| 2026-05-04 19:47 | 43.44916 | 7.37409 | 6267 ft | 290 kts | 254° |
| 2026-05-04 19:47 | 43.44473 | 7.34759 | 5927 ft | 285 kts | 254° |
| 2026-05-04 19:47 | 43.44023 | 7.32083 | 5395 ft | 288 kts | 254° |
| 2026-05-04 19:48 | 43.43569 | 7.29386 | 4900 ft | 289 kts | 255° |
| 2026-05-04 19:48 | 43.43116 | 7.26690 | 4459 ft | 287 kts | 256° |
| 2026-05-04 19:48 | 43.42843 | 7.24060 | 4381 ft | 270 kts | 272° |
| 2026-05-04 19:48 | 43.43217 | 7.21634 | 4282 ft | 251 kts | 295° |
| 2026-05-04 19:49 | 43.44106 | 7.19690 | 4173 ft | 237 kts | 314° |
| 2026-05-04 19:49 | 43.45182 | 7.18022 | 4048 ft | 227 kts | 316° |
| 2026-05-04 19:49 | 43.46391 | 7.16753 | 3964 ft | 211 kts | 339° |
| 2026-05-04 19:49 | 43.47736 | 7.16199 | 3783 ft | 196 kts | 359° |
| 2026-05-04 19:50 | 43.49098 | 7.16066 | 3437 ft | 194 kts | 2° |
| 2026-05-04 19:50 | 43.50418 | 7.15941 | 3150 ft | 191 kts | 2° |
| 2026-05-04 19:50 | 43.51736 | 7.15815 | 2882 ft | 187 kts | 2° |
| 2026-05-04 19:50 | 43.53002 | 7.15690 | 2631 ft | 176 kts | 2° |
| 2026-05-04 19:51 | 43.54197 | 7.15572 | 2403 ft | 169 kts | 4° |
| 2026-05-04 19:51 | 43.55364 | 7.15460 | 2176 ft | 167 kts | 4° |
| 2026-05-04 19:51 | 43.56515 | 7.15358 | 2010 ft | 164 kts | 5° |
| 2026-05-04 19:51 | 43.57638 | 7.15237 | 1992 ft | 153 kts | 2° |
| 2026-05-04 19:52 | 43.58650 | 7.15057 | 1835 ft | 145 kts | 359° |
| 2026-05-04 19:52 | 43.59632 | 7.14846 | 1616 ft | 141 kts | 359° |
| 2026-05-04 19:52 | 43.60590 | 7.14718 | 1336 ft | 136 kts | 9° |
| 2026-05-04 19:52 | 43.61454 | 7.15061 | 1169 ft | 125 kts | 40° |
| 2026-05-04 19:53 | 43.62070 | 7.15883 | 1016 ft | 125 kts | 50° |
| 2026-05-04 19:53 | 43.62675 | 7.16752 | 833 ft | 125 kts | 52° |
| 2026-05-04 19:53 | 43.63256 | 7.17661 | 644 ft | 126 kts | 49° |
| 2026-05-04 19:53 | 43.63867 | 7.18549 | 462 ft | 129 kts | 48° |
| 2026-05-04 19:54 | 43.64501 | 7.19449 | 298 ft | 131 kts | 47° |
| 2026-05-04 19:54 | 43.65130 | 7.20329 | 108 ft | 131 kts | 47° |
| 2026-05-04 19:54 | 43.65747 | 7.21185 | 23 ft | 110 kts | 45° |
| 2026-05-04 19:54 | 43.66167 | 7.21764 | 21 ft | 66 kts | 45° |
| 2026-05-04 19:55 | 43.66383 | 7.21994 | 22 ft | 19 kts | 21° |
| 2026-05-04 19:55 | 43.66449 | 7.22028 | 23 ft | 6 kts | 21° |
| 2026-05-04 19:55 | 43.66484 | 7.22046 | 21 ft | 5 kts | 16° |
| 2026-05-04 19:55 | 43.66519 | 7.22048 | 21 ft | 6 kts | 353° |
| 2026-05-04 19:56 | 43.66555 | 7.21998 | 21 ft | 10 kts | 274° |
| 2026-05-04 19:56 | 43.66507 | 7.21906 | 21 ft | 14 kts | 225° |
| 2026-05-04 19:56 | 43.66424 | 7.21792 | 21 ft | 19 kts | 225° |
| 2026-05-04 19:56 | 43.66317 | 7.21645 | 21 ft | 23 kts | 226° |
| 2026-05-04 19:57 | 43.66197 | 7.21480 | 21 ft | 26 kts | 225° |
| 2026-05-04 19:57 | 43.66067 | 7.21302 | 21 ft | 24 kts | 225° |
| 2026-05-04 19:57 | 43.65973 | 7.21172 | 21 ft | 14 kts | 225° |
| 2026-05-04 19:57 | 43.65906 | 7.21080 | 21 ft | 13 kts | 224° |
| 2026-05-04 19:58 | 43.65843 | 7.20995 | 21 ft | 12 kts | 224° |
| 2026-05-04 19:58 | 43.65797 | 7.20911 | 21 ft | 10 kts | 261° |
| 2026-05-04 19:58 | 43.65858 | 7.20850 | 21 ft | 15 kts | 351° |
| 2026-05-04 19:58 | 43.65962 | 7.20827 | 21 ft | 15 kts | 351° |
| 2026-05-04 19:59 | 43.66006 | 7.20795 | 21 ft | 4 kts | 276° |
| 2026-05-04 19:59 | 43.65999 | 7.20758 | 21 ft | 5 kts | 258° |
| 2026-05-04 19:59 | 43.65994 | 7.20718 | 21 ft | 0 kts | 259° |
| 2026-05-04 20:03 | 43.65994 | 7.20719 | 21 ft | 0 kts | 259° |